sensor_id;sensor_type;location;lat;lon;timestamp;temperature;humidity
40059;SHT31;25763;49.972;8.568;2022-09-02T00:00:56;18.48;56.81
40059;SHT31;25763;49.972;8.568;2022-09-02T00:03:34;18.44;55.79
40059;SHT31;25763;49.972;8.568;2022-09-02T00:06:00;18.37;56.77
40059;SHT31;25763;49.972;8.568;2022-09-02T00:08:27;18.26;56.37
40059;SHT31;25763;49.972;8.568;2022-09-02T00:10:53;18.26;56.52
40059;SHT31;25763;49.972;8.568;2022-09-02T00:13:19;18.26;56.49
40059;SHT31;25763;49.972;8.568;2022-09-02T00:15:46;18.14;56.41
40059;SHT31;25763;49.972;8.568;2022-09-02T00:18:13;18.08;56.89
40059;SHT31;25763;49.972;8.568;2022-09-02T00:20:41;18.17;57.26
40059;SHT31;25763;49.972;8.568;2022-09-02T00:23:07;18.20;57.22
40059;SHT31;25763;49.972;8.568;2022-09-02T00:25:34;18.21;57.66
40059;SHT31;25763;49.972;8.568;2022-09-02T00:28:00;18.21;57.32
40059;SHT31;25763;49.972;8.568;2022-09-02T00:30:26;18.18;56.97
40059;SHT31;25763;49.972;8.568;2022-09-02T00:32:52;18.31;57.82
40059;SHT31;25763;49.972;8.568;2022-09-02T00:35:18;18.30;58.29
40059;SHT31;25763;49.972;8.568;2022-09-02T00:37:43;18.34;57.94
40059;SHT31;25763;49.972;8.568;2022-09-02T00:40:09;18.23;57.04
40059;SHT31;25763;49.972;8.568;2022-09-02T00:42:35;18.09;57.57
40059;SHT31;25763;49.972;8.568;2022-09-02T00:45:01;18.14;58.45
40059;SHT31;25763;49.972;8.568;2022-09-02T00:47:28;17.98;57.55
40059;SHT31;25763;49.972;8.568;2022-09-02T00:49:55;17.91;58.35
40059;SHT31;25763;49.972;8.568;2022-09-02T00:52:29;17.75;57.92
40059;SHT31;25763;49.972;8.568;2022-09-02T00:54:58;17.85;58.43
40059;SHT31;25763;49.972;8.568;2022-09-02T00:57:29;17.85;57.78
40059;SHT31;25763;49.972;8.568;2022-09-02T01:02:31;17.79;58.28
40059;SHT31;25763;49.972;8.568;2022-09-02T01:04:58;17.92;57.99
40059;SHT31;25763;49.972;8.568;2022-09-02T01:07:26;17.78;57.85
40059;SHT31;25763;49.972;8.568;2022-09-02T01:09:53;17.84;58.61
40059;SHT31;25763;49.972;8.568;2022-09-02T01:12:20;17.73;58.31
40059;SHT31;25763;49.972;8.568;2022-09-02T01:14:46;17.64;58.71
40059;SHT31;25763;49.972;8.568;2022-09-02T01:17:12;17.57;59.09
40059;SHT31;25763;49.972;8.568;2022-09-02T01:19:42;17.49;59.39
40059;SHT31;25763;49.972;8.568;2022-09-02T01:22:22;17.58;59.00
40059;SHT31;25763;49.972;8.568;2022-09-02T01:24:48;17.58;59.06
40059;SHT31;25763;49.972;8.568;2022-09-02T01:27:15;17.46;59.34
40059;SHT31;25763;49.972;8.568;2022-09-02T01:29:42;17.32;59.91
40059;SHT31;25763;49.972;8.568;2022-09-02T01:32:07;17.30;60.08
40059;SHT31;25763;49.972;8.568;2022-09-02T01:34:32;17.23;60.13
40059;SHT31;25763;49.972;8.568;2022-09-02T01:36:58;17.27;60.14
40059;SHT31;25763;49.972;8.568;2022-09-02T01:39:23;17.23;59.91
40059;SHT31;25763;49.972;8.568;2022-09-02T01:41:49;17.22;60.09
40059;SHT31;25763;49.972;8.568;2022-09-02T01:44:14;17.14;60.12
40059;SHT31;25763;49.972;8.568;2022-09-02T01:46:42;17.04;60.37
40059;SHT31;25763;49.972;8.568;2022-09-02T01:49:07;17.04;60.68
40059;SHT31;25763;49.972;8.568;2022-09-02T01:51:33;16.98;60.76
40059;SHT31;25763;49.972;8.568;2022-09-02T01:53:58;16.95;60.81
40059;SHT31;25763;49.972;8.568;2022-09-02T01:56:24;16.87;60.94
40059;SHT31;25763;49.972;8.568;2022-09-02T01:58:49;16.87;60.84
40059;SHT31;25763;49.972;8.568;2022-09-02T02:01:15;16.90;60.68
40059;SHT31;25763;49.972;8.568;2022-09-02T02:03:40;16.81;60.73
40059;SHT31;25763;49.972;8.568;2022-09-02T02:06:11;16.68;61.05
40059;SHT31;25763;49.972;8.568;2022-09-02T02:08:38;16.63;61.43
40059;SHT31;25763;49.972;8.568;2022-09-02T02:11:05;16.59;61.33
40059;SHT31;25763;49.972;8.568;2022-09-02T02:13:30;16.63;61.27
40059;SHT31;25763;49.972;8.568;2022-09-02T02:15:56;16.64;61.47
40059;SHT31;25763;49.972;8.568;2022-09-02T02:18:21;16.63;61.35
40059;SHT31;25763;49.972;8.568;2022-09-02T02:20:48;16.75;61.42
40059;SHT31;25763;49.972;8.568;2022-09-02T02:23:13;16.84;60.93
40059;SHT31;25763;49.972;8.568;2022-09-02T02:25:39;16.70;60.78
40059;SHT31;25763;49.972;8.568;2022-09-02T02:28:04;16.83;61.65
40059;SHT31;25763;49.972;8.568;2022-09-02T02:30:30;16.88;61.81
40059;SHT31;25763;49.972;8.568;2022-09-02T02:32:55;16.95;61.36
40059;SHT31;25763;49.972;8.568;2022-09-02T02:35:21;16.95;61.02
40059;SHT31;25763;49.972;8.568;2022-09-02T02:37:47;17.01;61.39
40059;SHT31;25763;49.972;8.568;2022-09-02T02:40:17;17.02;61.15
40059;SHT31;25763;49.972;8.568;2022-09-02T02:42:44;16.99;61.34
40059;SHT31;25763;49.972;8.568;2022-09-02T02:45:10;17.01;61.02
40059;SHT31;25763;49.972;8.568;2022-09-02T02:47:41;16.84;61.09
40059;SHT31;25763;49.972;8.568;2022-09-02T02:50:09;16.75;61.35
40059;SHT31;25763;49.972;8.568;2022-09-02T02:52:36;16.59;61.69
40059;SHT31;25763;49.972;8.568;2022-09-02T02:55:02;16.52;61.98
40059;SHT31;25763;49.972;8.568;2022-09-02T02:57:29;16.50;62.02
40059;SHT31;25763;49.972;8.568;2022-09-02T02:59:54;16.45;62.31
40059;SHT31;25763;49.972;8.568;2022-09-02T03:02:21;16.40;62.45
40059;SHT31;25763;49.972;8.568;2022-09-02T03:04:47;16.43;62.26
40059;SHT31;25763;49.972;8.568;2022-09-02T03:07:14;16.39;62.44
40059;SHT31;25763;49.972;8.568;2022-09-02T03:09:39;16.36;62.59
40059;SHT31;25763;49.972;8.568;2022-09-02T03:12:05;16.29;62.34
40059;SHT31;25763;49.972;8.568;2022-09-02T03:14:30;16.14;63.04
40059;SHT31;25763;49.972;8.568;2022-09-02T03:16:56;16.15;62.93
40059;SHT31;25763;49.972;8.568;2022-09-02T03:19:21;16.20;63.00
40059;SHT31;25763;49.972;8.568;2022-09-02T03:21:47;16.28;62.67
40059;SHT31;25763;49.972;8.568;2022-09-02T03:24:12;16.30;62.44
40059;SHT31;25763;49.972;8.568;2022-09-02T03:26:39;16.40;63.09
40059;SHT31;25763;49.972;8.568;2022-09-02T03:29:05;16.47;62.82
40059;SHT31;25763;49.972;8.568;2022-09-02T03:31:30;16.53;62.40
40059;SHT31;25763;49.972;8.568;2022-09-02T03:33:56;16.49;62.78
40059;SHT31;25763;49.972;8.568;2022-09-02T03:36:33;16.52;62.34
40059;SHT31;25763;49.972;8.568;2022-09-02T03:39:00;16.40;62.00
40059;SHT31;25763;49.972;8.568;2022-09-02T03:41:26;16.11;62.83
40059;SHT31;25763;49.972;8.568;2022-09-02T03:43:51;16.15;63.04
40059;SHT31;25763;49.972;8.568;2022-09-02T03:46:17;16.10;62.94
40059;SHT31;25763;49.972;8.568;2022-09-02T03:48:43;16.21;63.49
40059;SHT31;25763;49.972;8.568;2022-09-02T03:51:09;16.17;62.47
40059;SHT31;25763;49.972;8.568;2022-09-02T03:53:34;16.18;62.98
40059;SHT31;25763;49.972;8.568;2022-09-02T03:56:08;16.25;62.76
40059;SHT31;25763;49.972;8.568;2022-09-02T03:58:36;16.17;62.68
40059;SHT31;25763;49.972;8.568;2022-09-02T04:01:03;16.17;63.01
40059;SHT31;25763;49.972;8.568;2022-09-02T04:03:28;16.32;63.20
40059;SHT31;25763;49.972;8.568;2022-09-02T04:05:53;16.40;63.15
40059;SHT31;25763;49.972;8.568;2022-09-02T04:08:19;16.49;62.81
40059;SHT31;25763;49.972;8.568;2022-09-02T04:10:44;16.55;62.40
40059;SHT31;25763;49.972;8.568;2022-09-02T04:13:10;16.57;62.44
40059;SHT31;25763;49.972;8.568;2022-09-02T04:15:43;16.59;62.36
40059;SHT31;25763;49.972;8.568;2022-09-02T04:18:12;16.59;61.97
40059;SHT31;25763;49.972;8.568;2022-09-02T04:20:39;16.56;61.62
40059;SHT31;25763;49.972;8.568;2022-09-02T04:23:05;16.53;61.84
40059;SHT31;25763;49.972;8.568;2022-09-02T04:25:31;16.57;61.48
40059;SHT31;25763;49.972;8.568;2022-09-02T04:27:57;16.63;62.32
40059;SHT31;25763;49.972;8.568;2022-09-02T04:30:22;16.64;62.02
40059;SHT31;25763;49.972;8.568;2022-09-02T04:32:50;16.63;61.80
40059;SHT31;25763;49.972;8.568;2022-09-02T04:35:16;16.63;61.43
40059;SHT31;25763;49.972;8.568;2022-09-02T04:37:42;16.50;61.65
40059;SHT31;25763;49.972;8.568;2022-09-02T04:40:08;16.61;62.19
40059;SHT31;25763;49.972;8.568;2022-09-02T04:42:34;16.61;62.13
40059;SHT31;25763;49.972;8.568;2022-09-02T04:45:00;16.65;61.94
40059;SHT31;25763;49.972;8.568;2022-09-02T04:47:25;16.56;61.97
40059;SHT31;25763;49.972;8.568;2022-09-02T04:49:52;16.59;62.06
40059;SHT31;25763;49.972;8.568;2022-09-02T04:52:18;16.55;62.30
40059;SHT31;25763;49.972;8.568;2022-09-02T04:54:44;16.49;62.00
40059;SHT31;25763;49.972;8.568;2022-09-02T04:57:10;16.38;62.00
40059;SHT31;25763;49.972;8.568;2022-09-02T04:59:35;16.49;62.61
40059;SHT31;25763;49.972;8.568;2022-09-02T05:02:02;16.49;62.23
40059;SHT31;25763;49.972;8.568;2022-09-02T05:04:27;16.55;62.16
40059;SHT31;25763;49.972;8.568;2022-09-02T05:06:55;16.49;61.99
40059;SHT31;25763;49.972;8.568;2022-09-02T05:09:22;16.46;61.80
40059;SHT31;25763;49.972;8.568;2022-09-02T05:11:47;16.38;61.95
40059;SHT31;25763;49.972;8.568;2022-09-02T05:14:13;16.36;62.19
40059;SHT31;25763;49.972;8.568;2022-09-02T05:16:41;16.22;62.44
40059;SHT31;25763;49.972;8.568;2022-09-02T05:19:07;16.42;62.63
40059;SHT31;25763;49.972;8.568;2022-09-02T05:21:39;16.32;62.68
40059;SHT31;25763;49.972;8.568;2022-09-02T05:24:04;16.32;62.90
40059;SHT31;25763;49.972;8.568;2022-09-02T05:26:30;16.36;62.98
40059;SHT31;25763;49.972;8.568;2022-09-02T05:29:01;16.28;62.84
40059;SHT31;25763;49.972;8.568;2022-09-02T05:31:26;16.39;62.94
40059;SHT31;25763;49.972;8.568;2022-09-02T05:33:53;16.42;62.93
40059;SHT31;25763;49.972;8.568;2022-09-02T05:36:20;16.32;62.30
40059;SHT31;25763;49.972;8.568;2022-09-02T05:38:46;16.38;62.87
40059;SHT31;25763;49.972;8.568;2022-09-02T05:41:15;16.25;62.84
40059;SHT31;25763;49.972;8.568;2022-09-02T05:43:42;16.32;62.39
40059;SHT31;25763;49.972;8.568;2022-09-02T05:46:14;16.46;62.95
40059;SHT31;25763;49.972;8.568;2022-09-02T05:48:42;16.49;62.50
40059;SHT31;25763;49.972;8.568;2022-09-02T05:51:26;16.55;62.51
40059;SHT31;25763;49.972;8.568;2022-09-02T05:53:56;16.36;62.71
40059;SHT31;25763;49.972;8.568;2022-09-02T05:56:22;16.46;62.86
40059;SHT31;25763;49.972;8.568;2022-09-02T05:58:47;16.65;63.11
40059;SHT31;25763;49.972;8.568;2022-09-02T06:01:17;16.70;62.73
40059;SHT31;25763;49.972;8.568;2022-09-02T06:03:43;16.70;62.80
40059;SHT31;25763;49.972;8.568;2022-09-02T06:06:09;16.75;62.40
40059;SHT31;25763;49.972;8.568;2022-09-02T06:08:35;16.81;61.91
40059;SHT31;25763;49.972;8.568;2022-09-02T06:11:01;16.75;62.22
40059;SHT31;25763;49.972;8.568;2022-09-02T06:13:28;16.78;61.81
40059;SHT31;25763;49.972;8.568;2022-09-02T06:15:54;16.74;61.81
40059;SHT31;25763;49.972;8.568;2022-09-02T06:18:20;16.71;62.52
40059;SHT31;25763;49.972;8.568;2022-09-02T06:20:46;16.95;63.85
40059;SHT31;25763;49.972;8.568;2022-09-02T06:23:12;17.15;63.08
40059;SHT31;25763;49.972;8.568;2022-09-02T06:25:39;17.33;63.34
40059;SHT31;25763;49.972;8.568;2022-09-02T06:28:05;17.41;62.66
40059;SHT31;25763;49.972;8.568;2022-09-02T06:30:31;17.43;61.93
40059;SHT31;25763;49.972;8.568;2022-09-02T06:32:57;17.50;61.92
40059;SHT31;25763;49.972;8.568;2022-09-02T06:35:22;17.70;62.87
40059;SHT31;25763;49.972;8.568;2022-09-02T06:37:48;17.41;59.86
40059;SHT31;25763;49.972;8.568;2022-09-02T06:40:14;17.50;60.90
40059;SHT31;25763;49.972;8.568;2022-09-02T06:42:40;17.73;62.91
40059;SHT31;25763;49.972;8.568;2022-09-02T06:45:06;17.64;62.42
40059;SHT31;25763;49.972;8.568;2022-09-02T06:47:32;17.77;61.15
40059;SHT31;25763;49.972;8.568;2022-09-02T06:49:58;17.89;61.30
40059;SHT31;25763;49.972;8.568;2022-09-02T06:52:24;17.77;60.60
40059;SHT31;25763;49.972;8.568;2022-09-02T06:54:50;17.92;61.63
40059;SHT31;25763;49.972;8.568;2022-09-02T06:57:16;18.12;60.25
40059;SHT31;25763;49.972;8.568;2022-09-02T06:59:42;18.20;60.45
40059;SHT31;25763;49.972;8.568;2022-09-02T07:02:07;18.14;58.95
40059;SHT31;25763;49.972;8.568;2022-09-02T07:04:33;18.34;60.46
40059;SHT31;25763;49.972;8.568;2022-09-02T07:07:17;18.38;59.08
40059;SHT31;25763;49.972;8.568;2022-09-02T07:09:42;18.31;59.76
40059;SHT31;25763;49.972;8.568;2022-09-02T07:12:08;18.24;59.12
40059;SHT31;25763;49.972;8.568;2022-09-02T07:14:41;18.45;59.75
40059;SHT31;25763;49.972;8.568;2022-09-02T07:17:08;18.50;59.23
40059;SHT31;25763;49.972;8.568;2022-09-02T07:19:34;18.58;58.37
40059;SHT31;25763;49.972;8.568;2022-09-02T07:22:04;18.69;58.53
40059;SHT31;25763;49.972;8.568;2022-09-02T07:24:30;18.79;57.35
40059;SHT31;25763;49.972;8.568;2022-09-02T07:26:55;18.87;59.27
40059;SHT31;25763;49.972;8.568;2022-09-02T07:29:21;18.86;57.81
40059;SHT31;25763;49.972;8.568;2022-09-02T07:31:47;18.96;57.60
40059;SHT31;25763;49.972;8.568;2022-09-02T07:34:13;19.02;56.10
40059;SHT31;25763;49.972;8.568;2022-09-02T07:36:39;19.14;57.54
40059;SHT31;25763;49.972;8.568;2022-09-02T07:39:07;19.15;57.09
40059;SHT31;25763;49.972;8.568;2022-09-02T07:41:33;19.18;57.36
40059;SHT31;25763;49.972;8.568;2022-09-02T07:43:59;19.34;57.15
40059;SHT31;25763;49.972;8.568;2022-09-02T07:46:24;19.51;56.24
40059;SHT31;25763;49.972;8.568;2022-09-02T07:48:50;19.48;56.41
40059;SHT31;25763;49.972;8.568;2022-09-02T07:51:18;19.53;55.59
40059;SHT31;25763;49.972;8.568;2022-09-02T07:53:44;19.65;55.82
40059;SHT31;25763;49.972;8.568;2022-09-02T07:56:12;19.59;54.51
40059;SHT31;25763;49.972;8.568;2022-09-02T07:58:41;19.53;55.30
40059;SHT31;25763;49.972;8.568;2022-09-02T08:01:07;19.79;55.82
40059;SHT31;25763;49.972;8.568;2022-09-02T08:03:35;20.01;54.73
40059;SHT31;25763;49.972;8.568;2022-09-02T08:06:01;20.08;53.21
40059;SHT31;25763;49.972;8.568;2022-09-02T08:08:27;20.15;54.21
40059;SHT31;25763;49.972;8.568;2022-09-02T08:10:53;20.25;55.78
40059;SHT31;25763;49.972;8.568;2022-09-02T08:13:19;20.46;53.99
40059;SHT31;25763;49.972;8.568;2022-09-02T08:15:45;20.55;52.41
40059;SHT31;25763;49.972;8.568;2022-09-02T08:18:11;20.49;53.03
40059;SHT31;25763;49.972;8.568;2022-09-02T08:20:36;20.69;52.74
40059;SHT31;25763;49.972;8.568;2022-09-02T08:23:03;20.80;51.88
40059;SHT31;25763;49.972;8.568;2022-09-02T08:25:30;20.85;52.53
40059;SHT31;25763;49.972;8.568;2022-09-02T08:27:55;20.91;52.38
40059;SHT31;25763;49.972;8.568;2022-09-02T08:30:21;21.04;54.01
40059;SHT31;25763;49.972;8.568;2022-09-02T08:32:47;20.95;51.93
40059;SHT31;25763;49.972;8.568;2022-09-02T08:35:12;21.12;52.70
40059;SHT31;25763;49.972;8.568;2022-09-02T08:37:38;21.18;50.53
40059;SHT31;25763;49.972;8.568;2022-09-02T08:40:06;21.42;51.89
40059;SHT31;25763;49.972;8.568;2022-09-02T08:42:37;21.38;49.73
40059;SHT31;25763;49.972;8.568;2022-09-02T08:45:45;21.57;51.10
40059;SHT31;25763;49.972;8.568;2022-09-02T08:48:07;21.74;49.22
40059;SHT31;25763;49.972;8.568;2022-09-02T08:50:38;21.81;50.26
40059;SHT31;25763;49.972;8.568;2022-09-02T08:53:26;21.88;48.17
40059;SHT31;25763;49.972;8.568;2022-09-02T08:55:56;21.94;48.24
40059;SHT31;25763;49.972;8.568;2022-09-02T08:58:26;21.97;48.08
40059;SHT31;25763;49.972;8.568;2022-09-02T09:01:04;22.13;48.89
40059;SHT31;25763;49.972;8.568;2022-09-02T09:09:59;22.39;45.85
40059;SHT31;25763;49.972;8.568;2022-09-02T09:12:43;22.49;46.31
40059;SHT31;25763;49.972;8.568;2022-09-02T09:18:01;22.45;45.63
40059;SHT31;25763;49.972;8.568;2022-09-02T09:20:33;22.54;45.52
40059;SHT31;25763;49.972;8.568;2022-09-02T09:23:00;22.61;45.40
40059;SHT31;25763;49.972;8.568;2022-09-02T09:25:28;22.78;44.77
40059;SHT31;25763;49.972;8.568;2022-09-02T09:28:01;22.83;44.34
40059;SHT31;25763;49.972;8.568;2022-09-02T09:30:27;22.92;45.45
40059;SHT31;25763;49.972;8.568;2022-09-02T09:32:56;22.96;44.41
40059;SHT31;25763;49.972;8.568;2022-09-02T09:35:24;23.13;44.83
40059;SHT31;25763;49.972;8.568;2022-09-02T09:37:52;23.20;44.61
40059;SHT31;25763;49.972;8.568;2022-09-02T09:42:43;23.00;43.95
40059;SHT31;25763;49.972;8.568;2022-09-02T09:45:33;23.09;43.79
40059;SHT31;25763;49.972;8.568;2022-09-02T09:48:20;23.07;43.48
40059;SHT31;25763;49.972;8.568;2022-09-02T09:56:00;23.20;43.09
40059;SHT31;25763;49.972;8.568;2022-09-02T09:58:34;23.24;42.03
40059;SHT31;25763;49.972;8.568;2022-09-02T10:01:20;23.28;40.60
40059;SHT31;25763;49.972;8.568;2022-09-02T10:04:06;23.33;41.47
40059;SHT31;25763;49.972;8.568;2022-09-02T10:09:23;23.57;41.19
40059;SHT31;25763;49.972;8.568;2022-09-02T10:12:07;23.50;39.94
40059;SHT31;25763;49.972;8.568;2022-09-02T10:14:50;23.44;39.86
40059;SHT31;25763;49.972;8.568;2022-09-02T10:28:53;23.85;38.67
40059;SHT31;25763;49.972;8.568;2022-09-02T10:32:08;23.68;38.68
40059;SHT31;25763;49.972;8.568;2022-09-02T10:37:52;23.81;36.20
40059;SHT31;25763;49.972;8.568;2022-09-02T10:40:45;23.89;37.01
40059;SHT31;25763;49.972;8.568;2022-09-02T10:44:19;23.99;36.72
40059;SHT31;25763;49.972;8.568;2022-09-02T10:46:17;23.92;37.74
40059;SHT31;25763;49.972;8.568;2022-09-02T10:48:47;23.75;35.91
40059;SHT31;25763;49.972;8.568;2022-09-02T10:54:06;24.07;37.31
40059;SHT31;25763;49.972;8.568;2022-09-02T10:56:52;24.18;37.96
40059;SHT31;25763;49.972;8.568;2022-09-02T10:59:52;24.34;38.81
40059;SHT31;25763;49.972;8.568;2022-09-02T11:02:28;24.07;36.55
40059;SHT31;25763;49.972;8.568;2022-09-02T11:04:56;24.20;34.08
40059;SHT31;25763;49.972;8.568;2022-09-02T11:07:32;23.97;34.96
40059;SHT31;25763;49.972;8.568;2022-09-02T11:13:13;24.18;35.75
40059;SHT31;25763;49.972;8.568;2022-09-02T11:15:42;24.17;35.94
40059;SHT31;25763;49.972;8.568;2022-09-02T11:18:24;24.25;36.22
40059;SHT31;25763;49.972;8.568;2022-09-02T11:23:40;24.17;37.34
40059;SHT31;25763;49.972;8.568;2022-09-02T11:26:15;23.97;37.50
40059;SHT31;25763;49.972;8.568;2022-09-02T11:28:47;24.06;37.81
40059;SHT31;25763;49.972;8.568;2022-09-02T11:37:01;23.86;37.66
40059;SHT31;25763;49.972;8.568;2022-09-02T11:39:45;24.10;37.80
40059;SHT31;25763;49.972;8.568;2022-09-02T11:45:15;24.11;37.89
40059;SHT31;25763;49.972;8.568;2022-09-02T11:48:23;24.42;38.25
40059;SHT31;25763;49.972;8.568;2022-09-02T11:53:36;24.52;37.83
40059;SHT31;25763;49.972;8.568;2022-09-02T11:56:07;24.76;36.85
40059;SHT31;25763;49.972;8.568;2022-09-02T11:58:39;24.76;37.37
40059;SHT31;25763;49.972;8.568;2022-09-02T12:01:22;24.51;36.57
40059;SHT31;25763;49.972;8.568;2022-09-02T12:04:16;24.44;36.12
40059;SHT31;25763;49.972;8.568;2022-09-02T12:09:45;24.83;37.22
40059;SHT31;25763;49.972;8.568;2022-09-02T12:15:13;24.72;36.82
40059;SHT31;25763;49.972;8.568;2022-09-02T12:23:04;24.90;36.01
40059;SHT31;25763;49.972;8.568;2022-09-02T12:31:08;24.77;35.72
40059;SHT31;25763;49.972;8.568;2022-09-02T12:33:36;25.07;35.56
40059;SHT31;25763;49.972;8.568;2022-09-02T12:36:03;25.10;35.01
40059;SHT31;25763;49.972;8.568;2022-09-02T12:43:35;25.17;35.53
40059;SHT31;25763;49.972;8.568;2022-09-02T12:48:54;24.88;35.54
40059;SHT31;25763;49.972;8.568;2022-09-02T12:51:59;24.82;35.41
40059;SHT31;25763;49.972;8.568;2022-09-02T12:54:47;24.91;35.08
40059;SHT31;25763;49.972;8.568;2022-09-02T12:57:17;25.11;34.84
40059;SHT31;25763;49.972;8.568;2022-09-02T12:59:44;25.04;34.02
40059;SHT31;25763;49.972;8.568;2022-09-02T13:02:27;25.02;34.54
40059;SHT31;25763;49.972;8.568;2022-09-02T13:05:16;24.96;35.18
40059;SHT31;25763;49.972;8.568;2022-09-02T13:19:50;25.59;33.39
40059;SHT31;25763;49.972;8.568;2022-09-02T13:27:46;25.24;34.23
40059;SHT31;25763;49.972;8.568;2022-09-02T13:30:37;25.27;33.82
40059;SHT31;25763;49.972;8.568;2022-09-02T13:33:07;25.41;33.85
40059;SHT31;25763;49.972;8.568;2022-09-02T13:35:37;25.49;33.03
40059;SHT31;25763;49.972;8.568;2022-09-02T13:38:02;25.35;33.20
40059;SHT31;25763;49.972;8.568;2022-09-02T13:40:33;25.29;33.72
40059;SHT31;25763;49.972;8.568;2022-09-02T13:45:37;25.39;34.27
40059;SHT31;25763;49.972;8.568;2022-09-02T13:48:22;25.43;34.40
40059;SHT31;25763;49.972;8.568;2022-09-02T13:50:54;25.38;34.14
40059;SHT31;25763;49.972;8.568;2022-09-02T13:53:41;25.66;34.16
40059;SHT31;25763;49.972;8.568;2022-09-02T13:56:10;25.83;33.51
40059;SHT31;25763;49.972;8.568;2022-09-02T13:58:41;25.97;34.97
40059;SHT31;25763;49.972;8.568;2022-09-02T14:01:32;26.09;34.14
40059;SHT31;25763;49.972;8.568;2022-09-02T14:04:12;26.14;33.21
40059;SHT31;25763;49.972;8.568;2022-09-02T14:06:39;26.15;32.75
40059;SHT31;25763;49.972;8.568;2022-09-02T14:09:10;26.08;31.49
40059;SHT31;25763;49.972;8.568;2022-09-02T14:11:43;25.88;32.37
40059;SHT31;25763;49.972;8.568;2022-09-02T14:14:14;25.93;32.41
40059;SHT31;25763;49.972;8.568;2022-09-02T14:16:40;26.09;33.07
40059;SHT31;25763;49.972;8.568;2022-09-02T14:19:08;25.97;32.03
40059;SHT31;25763;49.972;8.568;2022-09-02T14:21:35;25.83;32.01
40059;SHT31;25763;49.972;8.568;2022-09-02T14:24:01;25.81;32.60
40059;SHT31;25763;49.972;8.568;2022-09-02T14:26:32;25.76;32.65
40059;SHT31;25763;49.972;8.568;2022-09-02T14:28:57;25.77;32.34
40059;SHT31;25763;49.972;8.568;2022-09-02T14:31:25;25.86;32.77
40059;SHT31;25763;49.972;8.568;2022-09-02T14:33:55;25.90;32.51
40059;SHT31;25763;49.972;8.568;2022-09-02T14:38:54;25.84;32.77
40059;SHT31;25763;49.972;8.568;2022-09-02T14:41:26;25.90;33.49
40059;SHT31;25763;49.972;8.568;2022-09-02T14:44:08;25.83;31.45
40059;SHT31;25763;49.972;8.568;2022-09-02T14:46:46;25.86;32.71
40059;SHT31;25763;49.972;8.568;2022-09-02T14:49:27;25.67;32.25
40059;SHT31;25763;49.972;8.568;2022-09-02T14:51:58;25.59;32.01
40059;SHT31;25763;49.972;8.568;2022-09-02T14:54:34;25.62;32.70
40059;SHT31;25763;49.972;8.568;2022-09-02T14:56:59;25.55;31.46
40059;SHT31;25763;49.972;8.568;2022-09-02T14:59:25;25.53;32.04
40059;SHT31;25763;49.972;8.568;2022-09-02T15:01:51;25.58;31.97
40059;SHT31;25763;49.972;8.568;2022-09-02T15:04:18;25.49;31.75
40059;SHT31;25763;49.972;8.568;2022-09-02T15:06:45;25.39;32.42
40059;SHT31;25763;49.972;8.568;2022-09-02T15:09:11;25.42;32.76
40059;SHT31;25763;49.972;8.568;2022-09-02T15:11:41;25.49;31.59
40059;SHT31;25763;49.972;8.568;2022-09-02T15:14:07;25.47;31.71
40059;SHT31;25763;49.972;8.568;2022-09-02T15:16:32;25.42;31.91
40059;SHT31;25763;49.972;8.568;2022-09-02T15:18:57;25.47;32.37
40059;SHT31;25763;49.972;8.568;2022-09-02T15:21:23;25.38;31.95
40059;SHT31;25763;49.972;8.568;2022-09-02T15:23:48;25.38;32.28
40059;SHT31;25763;49.972;8.568;2022-09-02T15:26:15;25.31;32.78
40059;SHT31;25763;49.972;8.568;2022-09-02T15:28:40;25.42;32.67
40059;SHT31;25763;49.972;8.568;2022-09-02T15:31:06;25.52;32.59
40059;SHT31;25763;49.972;8.568;2022-09-02T15:33:31;25.56;31.95
40059;SHT31;25763;49.972;8.568;2022-09-02T15:36:07;25.52;32.73
40059;SHT31;25763;49.972;8.568;2022-09-02T15:38:33;25.62;34.24
40059;SHT31;25763;49.972;8.568;2022-09-02T15:43:39;25.36;32.44
40059;SHT31;25763;49.972;8.568;2022-09-02T15:46:26;25.35;32.44
40059;SHT31;25763;49.972;8.568;2022-09-02T15:48:52;25.29;31.52
40059;SHT31;25763;49.972;8.568;2022-09-02T15:51:21;25.15;31.99
40059;SHT31;25763;49.972;8.568;2022-09-02T15:53:47;25.22;31.98
40059;SHT31;25763;49.972;8.568;2022-09-02T15:56:19;25.32;32.41
40059;SHT31;25763;49.972;8.568;2022-09-02T15:58:45;25.31;32.96
40059;SHT31;25763;49.972;8.568;2022-09-02T16:01:11;25.20;31.32
40059;SHT31;25763;49.972;8.568;2022-09-02T16:03:37;25.18;31.89
40059;SHT31;25763;49.972;8.568;2022-09-02T16:06:05;25.15;32.02
40059;SHT31;25763;49.972;8.568;2022-09-02T16:08:33;25.06;32.40
40059;SHT31;25763;49.972;8.568;2022-09-02T16:11:02;24.87;32.36
40059;SHT31;25763;49.972;8.568;2022-09-02T16:13:28;24.86;32.90
40059;SHT31;25763;49.972;8.568;2022-09-02T16:16:05;24.82;32.47
40059;SHT31;25763;49.972;8.568;2022-09-02T16:18:31;24.86;32.61
40059;SHT31;25763;49.972;8.568;2022-09-02T16:20:57;24.82;33.00
40059;SHT31;25763;49.972;8.568;2022-09-02T16:23:23;24.75;32.34
40059;SHT31;25763;49.972;8.568;2022-09-02T16:26:05;24.75;32.67
40059;SHT31;25763;49.972;8.568;2022-09-02T16:28:34;24.77;32.24
40059;SHT31;25763;49.972;8.568;2022-09-02T16:31:00;24.77;32.42
40059;SHT31;25763;49.972;8.568;2022-09-02T16:33:25;24.76;32.14
40059;SHT31;25763;49.972;8.568;2022-09-02T16:35:51;24.73;32.61
40059;SHT31;25763;49.972;8.568;2022-09-02T16:38:16;24.68;32.42
40059;SHT31;25763;49.972;8.568;2022-09-02T16:40:55;24.66;32.71
40059;SHT31;25763;49.972;8.568;2022-09-02T16:43:21;24.62;32.60
40059;SHT31;25763;49.972;8.568;2022-09-02T16:45:48;24.58;32.74
40059;SHT31;25763;49.972;8.568;2022-09-02T16:48:15;24.58;33.04
40059;SHT31;25763;49.972;8.568;2022-09-02T16:50:41;24.51;33.59
40059;SHT31;25763;49.972;8.568;2022-09-02T16:53:07;24.52;33.16
40059;SHT31;25763;49.972;8.568;2022-09-02T16:55:32;24.49;33.43
40059;SHT31;25763;49.972;8.568;2022-09-02T16:57:58;24.41;33.59
40059;SHT31;25763;49.972;8.568;2022-09-02T17:00:27;24.42;33.75
40059;SHT31;25763;49.972;8.568;2022-09-02T17:02:52;24.38;33.78
40059;SHT31;25763;49.972;8.568;2022-09-02T17:05:17;24.40;33.87
40059;SHT31;25763;49.972;8.568;2022-09-02T17:07:43;24.28;34.18
40059;SHT31;25763;49.972;8.568;2022-09-02T17:10:10;24.22;34.37
40059;SHT31;25763;49.972;8.568;2022-09-02T17:12:35;24.18;34.92
40059;SHT31;25763;49.972;8.568;2022-09-02T17:15:01;24.14;35.15
40059;SHT31;25763;49.972;8.568;2022-09-02T17:17:27;24.07;35.28
40059;SHT31;25763;49.972;8.568;2022-09-02T17:19:52;23.96;36.00
40059;SHT31;25763;49.972;8.568;2022-09-02T17:22:18;23.88;35.28
40059;SHT31;25763;49.972;8.568;2022-09-02T17:24:43;23.83;35.20
40059;SHT31;25763;49.972;8.568;2022-09-02T17:27:09;23.83;35.84
40059;SHT31;25763;49.972;8.568;2022-09-02T17:29:34;23.78;36.54